sensor_id;sensor_type;location;lat;lon;timestamp;P1;durP1;ratioP1;P2;durP2;ratioP2
38222;SDS011;24024;51.186;6.458;2023-07-20T00:02:04;8.32;;;3.20;;
38222;SDS011;24024;51.186;6.458;2023-07-20T00:04:33;8.65;;;3.55;;
38222;SDS011;24024;51.186;6.458;2023-07-20T00:07:00;7.10;;;3.33;;
38222;SDS011;24024;51.186;6.458;2023-07-20T00:09:27;6.00;;;2.95;;
38222;SDS011;24024;51.186;6.458;2023-07-20T00:11:58;7.72;;;3.33;;
38222;SDS011;24024;51.186;6.458;2023-07-20T00:14:26;7.85;;;3.00;;
38222;SDS011;24024;51.186;6.458;2023-07-20T00:16:54;6.85;;;3.30;;
38222;SDS011;24024;51.186;6.458;2023-07-20T00:19:23;8.73;;;3.35;;
38222;SDS011;24024;51.186;6.458;2023-07-20T00:21:56;7.97;;;3.28;;
38222;SDS011;24024;51.186;6.458;2023-07-20T00:24:25;8.23;;;3.63;;
38222;SDS011;24024;51.186;6.458;2023-07-20T00:26:52;9.45;;;3.75;;
38222;SDS011;24024;51.186;6.458;2023-07-20T00:29:19;6.90;;;3.22;;
38222;SDS011;24024;51.186;6.458;2023-07-20T00:31:46;6.72;;;3.30;;
38222;SDS011;24024;51.186;6.458;2023-07-20T00:34:13;8.15;;;3.60;;
38222;SDS011;24024;51.186;6.458;2023-07-20T00:36:40;7.30;;;3.65;;
38222;SDS011;24024;51.186;6.458;2023-07-20T00:39:07;6.55;;;3.60;;
38222;SDS011;24024;51.186;6.458;2023-07-20T00:41:34;7.78;;;3.78;;
38222;SDS011;24024;51.186;6.458;2023-07-20T00:44:04;6.22;;;3.42;;
38222;SDS011;24024;51.186;6.458;2023-07-20T00:46:31;7.47;;;3.60;;
38222;SDS011;24024;51.186;6.458;2023-07-20T00:49:01;11.90;;;3.63;;
38222;SDS011;24024;51.186;6.458;2023-07-20T00:51:31;6.45;;;3.10;;
38222;SDS011;24024;51.186;6.458;2023-07-20T00:54:00;6.45;;;3.55;;
38222;SDS011;24024;51.186;6.458;2023-07-20T00:56:27;6.55;;;3.47;;
38222;SDS011;24024;51.186;6.458;2023-07-20T00:58:54;9.82;;;3.45;;
38222;SDS011;24024;51.186;6.458;2023-07-20T01:01:23;6.00;;;3.33;;
38222;SDS011;24024;51.186;6.458;2023-07-20T01:03:49;8.23;;;3.97;;
38222;SDS011;24024;51.186;6.458;2023-07-20T01:06:24;8.75;;;4.10;;
38222;SDS011;24024;51.186;6.458;2023-07-20T01:14:21;9.43;;;5.60;;
38222;SDS011;24024;51.186;6.458;2023-07-20T01:16:50;9.77;;;4.47;;
38222;SDS011;24024;51.186;6.458;2023-07-20T01:19:18;7.50;;;4.00;;
38222;SDS011;24024;51.186;6.458;2023-07-20T01:22:09;9.63;;;4.10;;
38222;SDS011;24024;51.186;6.458;2023-07-20T01:33:16;7.13;;;3.20;;
38222;SDS011;24024;51.186;6.458;2023-07-20T01:35:45;7.57;;;3.53;;
38222;SDS011;24024;51.186;6.458;2023-07-20T01:38:16;6.75;;;3.30;;
38222;SDS011;24024;51.186;6.458;2023-07-20T01:40:44;7.25;;;3.47;;
38222;SDS011;24024;51.186;6.458;2023-07-20T01:43:11;6.50;;;2.90;;
38222;SDS011;24024;51.186;6.458;2023-07-20T01:45:38;7.43;;;3.60;;
38222;SDS011;24024;51.186;6.458;2023-07-20T01:48:06;6.70;;;3.30;;
38222;SDS011;24024;51.186;6.458;2023-07-20T01:50:32;7.97;;;3.92;;
38222;SDS011;24024;51.186;6.458;2023-07-20T01:53:00;9.93;;;4.35;;
38222;SDS011;24024;51.186;6.458;2023-07-20T01:55:28;7.70;;;3.33;;
38222;SDS011;24024;51.186;6.458;2023-07-20T01:57:55;8.68;;;3.75;;
38222;SDS011;24024;51.186;6.458;2023-07-20T02:00:26;6.53;;;3.97;;
38222;SDS011;24024;51.186;6.458;2023-07-20T02:02:52;8.55;;;4.20;;
38222;SDS011;24024;51.186;6.458;2023-07-20T02:05:19;5.90;;;3.70;;
38222;SDS011;24024;51.186;6.458;2023-07-20T02:07:46;8.98;;;4.68;;
38222;SDS011;24024;51.186;6.458;2023-07-20T02:10:13;6.85;;;3.85;;
38222;SDS011;24024;51.186;6.458;2023-07-20T02:12:40;7.85;;;3.80;;
38222;SDS011;24024;51.186;6.458;2023-07-20T02:15:07;8.38;;;4.35;;
38222;SDS011;24024;51.186;6.458;2023-07-20T02:17:34;7.63;;;4.00;;
38222;SDS011;24024;51.186;6.458;2023-07-20T02:20:04;7.88;;;3.83;;
38222;SDS011;24024;51.186;6.458;2023-07-20T02:22:36;6.90;;;3.40;;
38222;SDS011;24024;51.186;6.458;2023-07-20T02:25:08;6.93;;;3.25;;
38222;SDS011;24024;51.186;6.458;2023-07-20T02:27:37;10.63;;;4.10;;
38222;SDS011;24024;51.186;6.458;2023-07-20T02:30:07;7.03;;;3.90;;
38222;SDS011;24024;51.186;6.458;2023-07-20T02:32:36;9.05;;;5.20;;
38222;SDS011;24024;51.186;6.458;2023-07-20T02:35:03;7.47;;;3.35;;
38222;SDS011;24024;51.186;6.458;2023-07-20T02:37:30;6.60;;;3.97;;
38222;SDS011;24024;51.186;6.458;2023-07-20T02:39:57;8.73;;;4.28;;
38222;SDS011;24024;51.186;6.458;2023-07-20T02:42:23;6.38;;;4.10;;
38222;SDS011;24024;51.186;6.458;2023-07-20T02:44:52;7.30;;;3.97;;
38222;SDS011;24024;51.186;6.458;2023-07-20T02:47:21;7.10;;;4.00;;
38222;SDS011;24024;51.186;6.458;2023-07-20T02:49:50;7.40;;;3.88;;
38222;SDS011;24024;51.186;6.458;2023-07-20T02:52:17;7.38;;;3.80;;
38222;SDS011;24024;51.186;6.458;2023-07-20T02:54:47;8.00;;;3.83;;
38222;SDS011;24024;51.186;6.458;2023-07-20T02:57:14;6.15;;;3.53;;
38222;SDS011;24024;51.186;6.458;2023-07-20T02:59:46;9.75;;;4.00;;
38222;SDS011;24024;51.186;6.458;2023-07-20T03:02:12;9.27;;;4.13;;
38222;SDS011;24024;51.186;6.458;2023-07-20T03:04:39;7.78;;;3.50;;
38222;SDS011;24024;51.186;6.458;2023-07-20T03:07:06;6.82;;;3.65;;
38222;SDS011;24024;51.186;6.458;2023-07-20T03:09:33;7.68;;;4.13;;
38222;SDS011;24024;51.186;6.458;2023-07-20T03:12:02;7.47;;;3.78;;
38222;SDS011;24024;51.186;6.458;2023-07-20T03:14:31;9.07;;;4.00;;
38222;SDS011;24024;51.186;6.458;2023-07-20T03:16:57;9.30;;;4.47;;
38222;SDS011;24024;51.186;6.458;2023-07-20T03:19:24;7.95;;;3.53;;
38222;SDS011;24024;51.186;6.458;2023-07-20T03:21:51;8.38;;;3.80;;
38222;SDS011;24024;51.186;6.458;2023-07-20T03:24:18;6.95;;;4.18;;
38222;SDS011;24024;51.186;6.458;2023-07-20T03:26:44;7.80;;;3.83;;
38222;SDS011;24024;51.186;6.458;2023-07-20T03:29:11;5.97;;;3.47;;
38222;SDS011;24024;51.186;6.458;2023-07-20T03:31:38;7.75;;;3.85;;
38222;SDS011;24024;51.186;6.458;2023-07-20T03:34:05;8.63;;;4.13;;
38222;SDS011;24024;51.186;6.458;2023-07-20T03:36:32;7.20;;;4.07;;
38222;SDS011;24024;51.186;6.458;2023-07-20T03:39:01;8.02;;;4.15;;
38222;SDS011;24024;51.186;6.458;2023-07-20T03:41:29;6.65;;;4.00;;
38222;SDS011;24024;51.186;6.458;2023-07-20T03:43:58;6.95;;;3.70;;
38222;SDS011;24024;51.186;6.458;2023-07-20T03:46:25;8.70;;;4.05;;
38222;SDS011;24024;51.186;6.458;2023-07-20T03:48:52;11.88;;;4.38;;
38222;SDS011;24024;51.186;6.458;2023-07-20T03:51:21;11.68;;;5.03;;
38222;SDS011;24024;51.186;6.458;2023-07-20T03:53:50;8.68;;;4.43;;
38222;SDS011;24024;51.186;6.458;2023-07-20T03:56:17;11.55;;;4.32;;
38222;SDS011;24024;51.186;6.458;2023-07-20T03:58:43;8.73;;;4.40;;
38222;SDS011;24024;51.186;6.458;2023-07-20T04:01:10;7.97;;;4.40;;
38222;SDS011;24024;51.186;6.458;2023-07-20T04:03:39;9.05;;;4.78;;
38222;SDS011;24024;51.186;6.458;2023-07-20T04:06:06;9.32;;;4.68;;
38222;SDS011;24024;51.186;6.458;2023-07-20T04:08:35;11.02;;;4.60;;
38222;SDS011;24024;51.186;6.458;2023-07-20T04:11:02;8.32;;;4.47;;
38222;SDS011;24024;51.186;6.458;2023-07-20T04:13:31;8.50;;;4.75;;
38222;SDS011;24024;51.186;6.458;2023-07-20T04:16:00;10.60;;;4.50;;
38222;SDS011;24024;51.186;6.458;2023-07-20T04:18:28;10.35;;;4.35;;
38222;SDS011;24024;51.186;6.458;2023-07-20T04:21:00;9.15;;;4.65;;
38222;SDS011;24024;51.186;6.458;2023-07-20T04:23:27;14.57;;;5.35;;
38222;SDS011;24024;51.186;6.458;2023-07-20T04:25:53;8.68;;;5.00;;
38222;SDS011;24024;51.186;6.458;2023-07-20T04:28:20;9.10;;;5.03;;
38222;SDS011;24024;51.186;6.458;2023-07-20T04:30:48;9.07;;;5.10;;
38222;SDS011;24024;51.186;6.458;2023-07-20T04:33:17;12.07;;;5.32;;
38222;SDS011;24024;51.186;6.458;2023-07-20T04:35:45;10.65;;;5.38;;
38222;SDS011;24024;51.186;6.458;2023-07-20T04:38:18;9.57;;;4.80;;
38222;SDS011;24024;51.186;6.458;2023-07-20T04:40:50;9.77;;;5.28;;
38222;SDS011;24024;51.186;6.458;2023-07-20T04:43:17;13.70;;;5.10;;
38222;SDS011;24024;51.186;6.458;2023-07-20T04:45:44;11.02;;;5.80;;
38222;SDS011;24024;51.186;6.458;2023-07-20T04:48:12;10.68;;;5.45;;
38222;SDS011;24024;51.186;6.458;2023-07-20T04:50:44;10.45;;;6.35;;
38222;SDS011;24024;51.186;6.458;2023-07-20T04:53:14;9.07;;;5.38;;
38222;SDS011;24024;51.186;6.458;2023-07-20T04:55:46;11.25;;;5.72;;
38222;SDS011;24024;51.186;6.458;2023-07-20T04:58:17;15.00;;;5.53;;
38222;SDS011;24024;51.186;6.458;2023-07-20T05:00:44;9.60;;;5.20;;
38222;SDS011;24024;51.186;6.458;2023-07-20T05:03:13;10.10;;;5.75;;
38222;SDS011;24024;51.186;6.458;2023-07-20T05:05:43;14.75;;;6.95;;
38222;SDS011;24024;51.186;6.458;2023-07-20T05:08:13;13.90;;;7.75;;
38222;SDS011;24024;51.186;6.458;2023-07-20T05:10:40;16.52;;;8.50;;
38222;SDS011;24024;51.186;6.458;2023-07-20T05:13:06;15.63;;;9.40;;
38222;SDS011;24024;51.186;6.458;2023-07-20T05:15:33;15.98;;;9.52;;
38222;SDS011;24024;51.186;6.458;2023-07-20T05:18:01;16.30;;;11.07;;
38222;SDS011;24024;51.186;6.458;2023-07-20T05:20:32;16.92;;;11.48;;
38222;SDS011;24024;51.186;6.458;2023-07-20T05:23:00;21.15;;;12.90;;
38222;SDS011;24024;51.186;6.458;2023-07-20T05:25:27;24.38;;;13.23;;
38222;SDS011;24024;51.186;6.458;2023-07-20T05:27:56;18.02;;;12.75;;
38222;SDS011;24024;51.186;6.458;2023-07-20T05:30:26;19.13;;;12.07;;
38222;SDS011;24024;51.186;6.458;2023-07-20T05:32:55;20.42;;;13.43;;
38222;SDS011;24024;51.186;6.458;2023-07-20T05:35:22;20.17;;;12.85;;
38222;SDS011;24024;51.186;6.458;2023-07-20T05:37:49;22.75;;;13.98;;
38222;SDS011;24024;51.186;6.458;2023-07-20T05:40:16;23.10;;;14.50;;
38222;SDS011;24024;51.186;6.458;2023-07-20T05:42:49;20.92;;;13.65;;
38222;SDS011;24024;51.186;6.458;2023-07-20T05:47:49;19.00;;;13.48;;
38222;SDS011;24024;51.186;6.458;2023-07-20T05:50:15;16.25;;;12.63;;
38222;SDS011;24024;51.186;6.458;2023-07-20T05:52:44;18.42;;;12.57;;
38222;SDS011;24024;51.186;6.458;2023-07-20T05:55:14;20.13;;;12.50;;
38222;SDS011;24024;51.186;6.458;2023-07-20T05:57:41;16.63;;;11.63;;
38222;SDS011;24024;51.186;6.458;2023-07-20T06:00:10;15.57;;;10.82;;
38222;SDS011;24024;51.186;6.458;2023-07-20T06:02:40;15.77;;;11.07;;
38222;SDS011;24024;51.186;6.458;2023-07-20T06:05:08;15.70;;;10.63;;
38222;SDS011;24024;51.186;6.458;2023-07-20T06:07:40;14.55;;;10.77;;
38222;SDS011;24024;51.186;6.458;2023-07-20T06:10:07;13.27;;;10.45;;
38222;SDS011;24024;51.186;6.458;2023-07-20T06:12:34;16.25;;;9.95;;
38222;SDS011;24024;51.186;6.458;2023-07-20T06:15:04;12.73;;;8.88;;
38222;SDS011;24024;51.186;6.458;2023-07-20T06:17:35;13.95;;;9.07;;
38222;SDS011;24024;51.186;6.458;2023-07-20T06:20:05;16.08;;;9.48;;
38222;SDS011;24024;51.186;6.458;2023-07-20T06:22:33;15.65;;;9.88;;
38222;SDS011;24024;51.186;6.458;2023-07-20T06:25:00;13.35;;;9.23;;
38222;SDS011;24024;51.186;6.458;2023-07-20T06:27:26;12.93;;;8.25;;
38222;SDS011;24024;51.186;6.458;2023-07-20T06:29:56;11.63;;;7.93;;
38222;SDS011;24024;51.186;6.458;2023-07-20T06:32:23;13.18;;;7.60;;
38222;SDS011;24024;51.186;6.458;2023-07-20T06:34:49;11.30;;;8.18;;
38222;SDS011;24024;51.186;6.458;2023-07-20T06:37:16;12.65;;;8.50;;
38222;SDS011;24024;51.186;6.458;2023-07-20T06:39:43;11.07;;;7.55;;
38222;SDS011;24024;51.186;6.458;2023-07-20T06:42:12;12.25;;;7.97;;
38222;SDS011;24024;51.186;6.458;2023-07-20T06:44:39;12.70;;;8.73;;
38222;SDS011;24024;51.186;6.458;2023-07-20T06:47:06;9.95;;;7.05;;
38222;SDS011;24024;51.186;6.458;2023-07-20T06:49:33;12.43;;;7.80;;
38222;SDS011;24024;51.186;6.458;2023-07-20T06:52:03;10.38;;;7.45;;
38222;SDS011;24024;51.186;6.458;2023-07-20T06:54:30;8.65;;;6.68;;
38222;SDS011;24024;51.186;6.458;2023-07-20T06:57:01;10.27;;;6.60;;
38222;SDS011;24024;51.186;6.458;2023-07-20T06:59:33;9.87;;;7.00;;
38222;SDS011;24024;51.186;6.458;2023-07-20T07:01:59;9.00;;;6.18;;
38222;SDS011;24024;51.186;6.458;2023-07-20T07:04:26;7.85;;;5.60;;
38222;SDS011;24024;51.186;6.458;2023-07-20T07:06:54;9.70;;;6.43;;
38222;SDS011;24024;51.186;6.458;2023-07-20T07:09:21;13.20;;;6.88;;
38222;SDS011;24024;51.186;6.458;2023-07-20T07:11:48;10.90;;;6.72;;
38222;SDS011;24024;51.186;6.458;2023-07-20T07:14:14;8.73;;;5.95;;
38222;SDS011;24024;51.186;6.458;2023-07-20T07:16:41;10.40;;;6.35;;
38222;SDS011;24024;51.186;6.458;2023-07-20T07:19:08;8.25;;;6.10;;
38222;SDS011;24024;51.186;6.458;2023-07-20T07:21:35;13.70;;;7.78;;
38222;SDS011;24024;51.186;6.458;2023-07-20T07:24:02;9.82;;;6.60;;
38222;SDS011;24024;51.186;6.458;2023-07-20T07:26:29;12.10;;;6.57;;
38222;SDS011;24024;51.186;6.458;2023-07-20T07:28:56;9.52;;;6.47;;
38222;SDS011;24024;51.186;6.458;2023-07-20T07:31:25;8.35;;;5.88;;
38222;SDS011;24024;51.186;6.458;2023-07-20T07:33:54;10.75;;;6.40;;
38222;SDS011;24024;51.186;6.458;2023-07-20T07:36:24;9.15;;;5.57;;
38222;SDS011;24024;51.186;6.458;2023-07-20T07:38:55;7.95;;;4.78;;
38222;SDS011;24024;51.186;6.458;2023-07-20T07:41:25;7.38;;;4.10;;
38222;SDS011;24024;51.186;6.458;2023-07-20T07:43:54;7.80;;;4.28;;
38222;SDS011;24024;51.186;6.458;2023-07-20T07:46:26;7.90;;;4.82;;
38222;SDS011;24024;51.186;6.458;2023-07-20T07:48:57;6.82;;;4.80;;
38222;SDS011;24024;51.186;6.458;2023-07-20T07:51:24;8.23;;;5.30;;
38222;SDS011;24024;51.186;6.458;2023-07-20T07:53:53;7.05;;;4.65;;
38222;SDS011;24024;51.186;6.458;2023-07-20T07:56:20;6.57;;;3.65;;
38222;SDS011;24024;51.186;6.458;2023-07-20T07:58:50;6.68;;;3.72;;
38222;SDS011;24024;51.186;6.458;2023-07-20T08:01:18;5.75;;;3.90;;
38222;SDS011;24024;51.186;6.458;2023-07-20T08:03:50;9.43;;;5.05;;
38222;SDS011;24024;51.186;6.458;2023-07-20T08:06:17;6.82;;;4.70;;
38222;SDS011;24024;51.186;6.458;2023-07-20T08:08:48;6.47;;;4.63;;
38222;SDS011;24024;51.186;6.458;2023-07-20T08:11:15;6.78;;;4.93;;
38222;SDS011;24024;51.186;6.458;2023-07-20T08:13:44;5.88;;;4.40;;
38222;SDS011;24024;51.186;6.458;2023-07-20T08:16:11;6.28;;;4.05;;
38222;SDS011;24024;51.186;6.458;2023-07-20T08:18:43;4.82;;;3.13;;
38222;SDS011;24024;51.186;6.458;2023-07-20T08:21:10;4.05;;;2.40;;
38222;SDS011;24024;51.186;6.458;2023-07-20T08:23:37;4.65;;;2.25;;
38222;SDS011;24024;51.186;6.458;2023-07-20T08:26:04;3.67;;;1.80;;
38222;SDS011;24024;51.186;6.458;2023-07-20T08:28:30;4.03;;;1.48;;
38222;SDS011;24024;51.186;6.458;2023-07-20T08:30:57;3.15;;;1.80;;
38222;SDS011;24024;51.186;6.458;2023-07-20T08:33:24;2.72;;;1.60;;
38222;SDS011;24024;51.186;6.458;2023-07-20T08:35:55;3.05;;;1.70;;
38222;SDS011;24024;51.186;6.458;2023-07-20T08:38:23;3.65;;;1.95;;
38222;SDS011;24024;51.186;6.458;2023-07-20T08:40:52;3.67;;;2.10;;
38222;SDS011;24024;51.186;6.458;2023-07-20T08:43:22;4.50;;;2.17;;
38222;SDS011;24024;51.186;6.458;2023-07-20T08:45:58;3.67;;;2.05;;
38222;SDS011;24024;51.186;6.458;2023-07-20T08:48:28;4.10;;;2.00;;
38222;SDS011;24024;51.186;6.458;2023-07-20T08:51:01;3.40;;;1.92;;
38222;SDS011;24024;51.186;6.458;2023-07-20T08:53:31;3.25;;;1.63;;
38222;SDS011;24024;51.186;6.458;2023-07-20T08:55:59;4.75;;;1.40;;
38222;SDS011;24024;51.186;6.458;2023-07-20T08:58:27;2.45;;;1.10;;
38222;SDS011;24024;51.186;6.458;2023-07-20T09:00:55;1.70;;;0.98;;
38222;SDS011;24024;51.186;6.458;2023-07-20T09:03:23;2.47;;;1.20;;
38222;SDS011;24024;51.186;6.458;2023-07-20T09:05:50;2.33;;;1.05;;
38222;SDS011;24024;51.186;6.458;2023-07-20T09:08:18;2.28;;;1.35;;
38222;SDS011;24024;51.186;6.458;2023-07-20T09:10:50;3.47;;;1.20;;
38222;SDS011;24024;51.186;6.458;2023-07-20T09:13:17;4.75;;;1.73;;
38222;SDS011;24024;51.186;6.458;2023-07-20T09:15:48;2.03;;;1.15;;
38222;SDS011;24024;51.186;6.458;2023-07-20T09:18:23;2.20;;;1.30;;
38222;SDS011;24024;51.186;6.458;2023-07-20T09:21:01;3.28;;;1.38;;
38222;SDS011;24024;51.186;6.458;2023-07-20T09:23:37;3.08;;;1.65;;
38222;SDS011;24024;51.186;6.458;2023-07-20T09:26:10;3.83;;;1.13;;
38222;SDS011;24024;51.186;6.458;2023-07-20T09:28:56;3.08;;;1.40;;
38222;SDS011;24024;51.186;6.458;2023-07-20T09:31:24;2.90;;;1.40;;
38222;SDS011;24024;51.186;6.458;2023-07-20T09:33:54;3.85;;;1.70;;
38222;SDS011;24024;51.186;6.458;2023-07-20T09:36:27;3.08;;;1.50;;
38222;SDS011;24024;51.186;6.458;2023-07-20T09:38:58;3.30;;;1.70;;
38222;SDS011;24024;51.186;6.458;2023-07-20T09:41:30;2.60;;;1.42;;
38222;SDS011;24024;51.186;6.458;2023-07-20T09:44:11;2.88;;;1.60;;
38222;SDS011;24024;51.186;6.458;2023-07-20T09:46:49;3.45;;;1.23;;
38222;SDS011;24024;51.186;6.458;2023-07-20T09:49:20;3.72;;;1.40;;
38222;SDS011;24024;51.186;6.458;2023-07-20T09:51:49;3.20;;;1.48;;
38222;SDS011;24024;51.186;6.458;2023-07-20T09:54:16;2.38;;;1.38;;
38222;SDS011;24024;51.186;6.458;2023-07-20T09:56:49;3.15;;;1.50;;
38222;SDS011;24024;51.186;6.458;2023-07-20T09:59:18;3.85;;;1.30;;
38222;SDS011;24024;51.186;6.458;2023-07-20T10:01:47;3.50;;;1.38;;
38222;SDS011;24024;51.186;6.458;2023-07-20T10:04:18;3.33;;;1.10;;
38222;SDS011;24024;51.186;6.458;2023-07-20T10:06:47;3.63;;;1.30;;
38222;SDS011;24024;51.186;6.458;2023-07-20T10:09:15;4.00;;;1.63;;
38222;SDS011;24024;51.186;6.458;2023-07-20T10:11:46;5.82;;;1.70;;
38222;SDS011;24024;51.186;6.458;2023-07-20T10:14:38;5.28;;;1.80;;
38222;SDS011;24024;51.186;6.458;2023-07-20T10:17:08;4.43;;;1.65;;
38222;SDS011;24024;51.186;6.458;2023-07-20T10:19:43;2.42;;;1.15;;
38222;SDS011;24024;51.186;6.458;2023-07-20T10:22:27;3.83;;;1.60;;
38222;SDS011;24024;51.186;6.458;2023-07-20T10:24:58;3.75;;;1.20;;
38222;SDS011;24024;51.186;6.458;2023-07-20T10:27:26;2.60;;;1.40;;
38222;SDS011;24024;51.186;6.458;2023-07-20T10:29:53;2.72;;;1.40;;
38222;SDS011;24024;51.186;6.458;2023-07-20T10:32:21;2.78;;;1.00;;
38222;SDS011;24024;51.186;6.458;2023-07-20T10:34:51;3.92;;;1.10;;
38222;SDS011;24024;51.186;6.458;2023-07-20T10:43:02;3.70;;;1.30;;
38222;SDS011;24024;51.186;6.458;2023-07-20T10:48:22;2.53;;;1.00;;
38222;SDS011;24024;51.186;6.458;2023-07-20T10:53:40;3.22;;;1.10;;
38222;SDS011;24024;51.186;6.458;2023-07-20T10:56:20;2.70;;;1.05;;
38222;SDS011;24024;51.186;6.458;2023-07-20T10:58:48;3.20;;;1.00;;
38222;SDS011;24024;51.186;6.458;2023-07-20T11:01:17;4.15;;;1.08;;
38222;SDS011;24024;51.186;6.458;2023-07-20T11:08:55;3.30;;;1.00;;
38222;SDS011;24024;51.186;6.458;2023-07-20T11:11:29;3.28;;;1.02;;
38222;SDS011;24024;51.186;6.458;2023-07-20T11:14:04;2.28;;;0.90;;
38222;SDS011;24024;51.186;6.458;2023-07-20T11:16:36;2.25;;;1.00;;
38222;SDS011;24024;51.186;6.458;2023-07-20T11:19:13;2.13;;;1.17;;
38222;SDS011;24024;51.186;6.458;2023-07-20T11:21:53;3.00;;;0.90;;
38222;SDS011;24024;51.186;6.458;2023-07-20T11:24:31;2.00;;;0.90;;
38222;SDS011;24024;51.186;6.458;2023-07-20T11:27:00;2.70;;;1.08;;
38222;SDS011;24024;51.186;6.458;2023-07-20T11:29:30;3.13;;;0.88;;
38222;SDS011;24024;51.186;6.458;2023-07-20T11:31:59;3.33;;;1.00;;
38222;SDS011;24024;51.186;6.458;2023-07-20T11:34:31;3.55;;;0.90;;
38222;SDS011;24024;51.186;6.458;2023-07-20T11:37:01;2.75;;;0.82;;
38222;SDS011;24024;51.186;6.458;2023-07-20T11:39:32;3.70;;;1.00;;
38222;SDS011;24024;51.186;6.458;2023-07-20T11:41:59;2.40;;;0.82;;
38222;SDS011;24024;51.186;6.458;2023-07-20T11:44:28;4.75;;;0.85;;
38222;SDS011;24024;51.186;6.458;2023-07-20T11:47:14;1.30;;;0.70;;
38222;SDS011;24024;51.186;6.458;2023-07-20T11:49:44;2.03;;;0.90;;
38222;SDS011;24024;51.186;6.458;2023-07-20T11:52:16;2.70;;;1.00;;
38222;SDS011;24024;51.186;6.458;2023-07-20T11:54:43;2.30;;;0.75;;
38222;SDS011;24024;51.186;6.458;2023-07-20T11:57:18;1.65;;;1.00;;
38222;SDS011;24024;51.186;6.458;2023-07-20T12:00:02;3.05;;;0.80;;
38222;SDS011;24024;51.186;6.458;2023-07-20T12:02:35;2.58;;;0.82;;
38222;SDS011;24024;51.186;6.458;2023-07-20T12:05:07;2.35;;;0.90;;
38222;SDS011;24024;51.186;6.458;2023-07-20T12:07:35;2.33;;;0.80;;
38222;SDS011;24024;51.186;6.458;2023-07-20T12:10:04;2.25;;;0.80;;
38222;SDS011;24024;51.186;6.458;2023-07-20T12:12:39;1.80;;;0.80;;
38222;SDS011;24024;51.186;6.458;2023-07-20T12:15:19;1.80;;;0.70;;
38222;SDS011;24024;51.186;6.458;2023-07-20T12:17:51;2.35;;;0.70;;
38222;SDS011;24024;51.186;6.458;2023-07-20T12:20:30;3.90;;;0.80;;
38222;SDS011;24024;51.186;6.458;2023-07-20T12:23:02;1.67;;;0.90;;
38222;SDS011;24024;51.186;6.458;2023-07-20T12:25:36;1.45;;;0.73;;
38222;SDS011;24024;51.186;6.458;2023-07-20T12:28:09;3.03;;;1.05;;
38222;SDS011;24024;51.186;6.458;2023-07-20T12:30:40;3.35;;;1.00;;
38222;SDS011;24024;51.186;6.458;2023-07-20T12:33:08;4.28;;;1.02;;
38222;SDS011;24024;51.186;6.458;2023-07-20T12:35:35;3.10;;;0.80;;
38222;SDS011;24024;51.186;6.458;2023-07-20T12:38:02;2.30;;;0.88;;
38222;SDS011;24024;51.186;6.458;2023-07-20T12:40:29;1.30;;;0.80;;
38222;SDS011;24024;51.186;6.458;2023-07-20T12:42:56;1.85;;;0.93;;
38222;SDS011;24024;51.186;6.458;2023-07-20T12:45:24;2.97;;;1.00;;
38222;SDS011;24024;51.186;6.458;2023-07-20T12:47:53;3.63;;;0.85;;
38222;SDS011;24024;51.186;6.458;2023-07-20T12:50:20;3.08;;;0.80;;
38222;SDS011;24024;51.186;6.458;2023-07-20T12:52:46;3.25;;;0.70;;
38222;SDS011;24024;51.186;6.458;2023-07-20T12:55:15;2.85;;;1.00;;
38222;SDS011;24024;51.186;6.458;2023-07-20T12:57:43;1.77;;;0.70;;
38222;SDS011;24024;51.186;6.458;2023-07-20T13:00:14;2.38;;;0.75;;
38222;SDS011;24024;51.186;6.458;2023-07-20T13:02:42;2.40;;;0.80;;
38222;SDS011;24024;51.186;6.458;2023-07-20T13:05:09;1.80;;;0.90;;
38222;SDS011;24024;51.186;6.458;2023-07-20T13:07:37;2.53;;;0.88;;
38222;SDS011;24024;51.186;6.458;2023-07-20T13:10:08;6.28;;;1.00;;
38222;SDS011;24024;51.186;6.458;2023-07-20T13:12:36;3.67;;;0.75;;
38222;SDS011;24024;51.186;6.458;2023-07-20T13:15:04;3.20;;;1.00;;
38222;SDS011;24024;51.186;6.458;2023-07-20T13:17:33;3.33;;;0.90;;
38222;SDS011;24024;51.186;6.458;2023-07-20T13:20:01;2.13;;;0.90;;
38222;SDS011;24024;51.186;6.458;2023-07-20T13:22:30;3.28;;;0.70;;
38222;SDS011;24024;51.186;6.458;2023-07-20T13:24:57;2.80;;;0.90;;
38222;SDS011;24024;51.186;6.458;2023-07-20T13:27:24;1.85;;;0.90;;
38222;SDS011;24024;51.186;6.458;2023-07-20T13:29:54;2.95;;;0.70;;
38222;SDS011;24024;51.186;6.458;2023-07-20T13:32:21;2.97;;;0.90;;
38222;SDS011;24024;51.186;6.458;2023-07-20T13:34:52;2.63;;;0.90;;
38222;SDS011;24024;51.186;6.458;2023-07-20T13:37:19;3.70;;;1.17;;
38222;SDS011;24024;51.186;6.458;2023-07-20T13:39:50;5.05;;;0.95;;
38222;SDS011;24024;51.186;6.458;2023-07-20T13:42:17;1.95;;;0.90;;
38222;SDS011;24024;51.186;6.458;2023-07-20T13:44:50;4.40;;;0.80;;
38222;SDS011;24024;51.186;6.458;2023-07-20T13:47:16;3.80;;;1.08;;
38222;SDS011;24024;51.186;6.458;2023-07-20T13:49:47;3.97;;;0.90;;
38222;SDS011;24024;51.186;6.458;2023-07-20T13:52:29;2.05;;;0.80;;
38222;SDS011;24024;51.186;6.458;2023-07-20T13:54:59;2.60;;;0.90;;
38222;SDS011;24024;51.186;6.458;2023-07-20T13:57:30;3.83;;;0.80;;
38222;SDS011;24024;51.186;6.458;2023-07-20T14:00:00;2.25;;;0.80;;
38222;SDS011;24024;51.186;6.458;2023-07-20T14:02:31;3.40;;;0.93;;
38222;SDS011;24024;51.186;6.458;2023-07-20T14:05:01;2.20;;;0.90;;
38222;SDS011;24024;51.186;6.458;2023-07-20T14:07:33;2.60;;;0.80;;
38222;SDS011;24024;51.186;6.458;2023-07-20T14:10:00;1.83;;;0.90;;
38222;SDS011;24024;51.186;6.458;2023-07-20T14:12:29;2.92;;;0.90;;
38222;SDS011;24024;51.186;6.458;2023-07-20T14:14:56;1.55;;;0.80;;
38222;SDS011;24024;51.186;6.458;2023-07-20T14:17:25;3.50;;;0.77;;
38222;SDS011;24024;51.186;6.458;2023-07-20T14:19:53;1.92;;;0.80;;
38222;SDS011;24024;51.186;6.458;2023-07-20T14:22:19;3.45;;;1.00;;
38222;SDS011;24024;51.186;6.458;2023-07-20T14:24:46;2.55;;;1.00;;
38222;SDS011;24024;51.186;6.458;2023-07-20T14:27:13;4.57;;;1.00;;
38222;SDS011;24024;51.186;6.458;2023-07-20T14:29:42;2.10;;;0.90;;
38222;SDS011;24024;51.186;6.458;2023-07-20T14:32:09;1.70;;;0.70;;
38222;SDS011;24024;51.186;6.458;2023-07-20T14:34:36;2.30;;;1.00;;
38222;SDS011;24024;51.186;6.458;2023-07-20T14:37:06;2.75;;;0.90;;
38222;SDS011;24024;51.186;6.458;2023-07-20T14:39:33;3.08;;;0.98;;
38222;SDS011;24024;51.186;6.458;2023-07-20T14:42:02;3.97;;;1.00;;
38222;SDS011;24024;51.186;6.458;2023-07-20T14:44:33;2.13;;;1.00;;
38222;SDS011;24024;51.186;6.458;2023-07-20T14:47:03;4.50;;;1.20;;
38222;SDS011;24024;51.186;6.458;2023-07-20T14:49:39;2.45;;;0.90;;
38222;SDS011;24024;51.186;6.458;2023-07-20T14:52:11;3.13;;;0.88;;
38222;SDS011;24024;51.186;6.458;2023-07-20T14:54:42;2.67;;;0.95;;
38222;SDS011;24024;51.186;6.458;2023-07-20T14:57:09;3.67;;;1.10;;
38222;SDS011;24024;51.186;6.458;2023-07-20T14:59:42;4.50;;;1.02;;
38222;SDS011;24024;51.186;6.458;2023-07-20T15:02:11;4.07;;;1.27;;
38222;SDS011;24024;51.186;6.458;2023-07-20T15:04:45;1.52;;;0.90;;
38222;SDS011;24024;51.186;6.458;2023-07-20T15:07:19;3.97;;;0.90;;
38222;SDS011;24024;51.186;6.458;2023-07-20T15:09:48;5.68;;;1.00;;
38222;SDS011;24024;51.186;6.458;2023-07-20T15:12:15;2.30;;;0.90;;
38222;SDS011;24024;51.186;6.458;2023-07-20T15:14:42;3.33;;;1.00;;
38222;SDS011;24024;51.186;6.458;2023-07-20T15:17:09;4.90;;;2.70;;
38222;SDS011;24024;51.186;6.458;2023-07-20T15:19:38;4.10;;;2.22;;
38222;SDS011;24024;51.186;6.458;2023-07-20T15:22:07;2.53;;;1.20;;
38222;SDS011;24024;51.186;6.458;2023-07-20T15:24:35;2.45;;;0.88;;
38222;SDS011;24024;51.186;6.458;2023-07-20T15:27:02;2.17;;;1.00;;
38222;SDS011;24024;51.186;6.458;2023-07-20T15:29:32;1.83;;;0.90;;
38222;SDS011;24024;51.186;6.458;2023-07-20T15:32:04;4.97;;;1.17;;